createdAt,value
2023-02-11T00:00:41.768Z,101400.72
2023-02-11T00:03:08.659Z,101384.13
2023-02-11T00:05:35.264Z,101382.31
2023-02-11T00:08:01.712Z,101382.66
2023-02-11T00:10:28.136Z,101380.09
2023-02-11T00:12:54.589Z,101382.84
2023-02-11T00:15:21.291Z,101399.63
2023-02-11T00:17:47.714Z,101395.50
2023-02-11T00:20:14.182Z,101396.56
2023-02-11T00:22:40.632Z,101393.69
2023-02-11T00:25:07.178Z,101389.91
2023-02-11T00:27:33.625Z,101384.28
2023-02-11T00:30:02.253Z,101390.81
2023-02-11T00:32:28.756Z,101395.66
2023-02-11T00:34:55.464Z,101394.06
2023-02-11T00:37:22.426Z,101396.78
2023-02-11T00:39:50.130Z,101387.56
2023-02-11T00:42:16.919Z,101392.44
2023-02-11T00:44:43.513Z,101386.81
2023-02-11T00:47:09.950Z,101379.22
2023-02-11T00:49:36.920Z,101384.47
2023-02-11T00:52:03.585Z,101374.53
2023-02-11T00:54:30.128Z,101367.84
2023-02-11T00:56:56.557Z,101367.31
2023-02-11T00:59:23.016Z,101363.88
2023-02-11T01:01:49.509Z,101361.16
2023-02-11T01:04:16.049Z,101363.88
2023-02-11T01:06:42.560Z,101359.53
2023-02-11T01:09:08.976Z,101360.44
2023-02-11T01:11:35.700Z,101365.16
2023-02-11T01:14:02.404Z,101377.59
2023-02-11T01:16:28.805Z,101383.22
2023-02-11T01:18:55.223Z,101371.63
2023-02-11T01:21:21.695Z,101379.44
2023-02-11T01:23:48.176Z,101382.66
2023-02-11T01:26:14.590Z,101373.09
2023-02-11T01:28:41.153Z,101372.91
2023-02-11T01:31:07.658Z,101372.75
2023-02-11T01:33:34.208Z,101374.16
2023-02-11T01:36:03.160Z,101379.56
2023-02-11T01:38:29.623Z,101375.63
2023-02-11T01:41:02.660Z,101369.44
2023-02-11T01:43:32.785Z,101375.41
2023-02-11T01:46:05.509Z,101367.13
2023-02-11T01:48:38.267Z,101366.56
2023-02-11T01:51:09.143Z,101351.75
2023-02-11T01:53:54.864Z,101342.38
2023-02-11T01:56:39.882Z,101333.50
2023-02-11T01:59:13.323Z,101335.16
2023-02-11T02:01:40.666Z,101332.97
2023-02-11T02:04:08.343Z,101336.78
2023-02-11T02:06:44.533Z,101343.09
2023-02-11T02:09:22.224Z,101336.06
2023-02-11T02:11:49.039Z,101331.34
2023-02-11T02:14:15.459Z,101329.16
2023-02-11T02:16:41.968Z,101329.31
2023-02-11T02:19:36.323Z,101328.63
2023-02-11T02:22:22.182Z,101321.22
2023-02-11T02:24:56.572Z,101320.69
2023-02-11T02:27:41.583Z,101313.44
2023-02-11T02:30:17.313Z,101303.16
2023-02-11T02:33:16.761Z,101306.22
2023-02-11T02:35:56.042Z,101306.22
2023-02-11T02:38:34.794Z,101321.38
2023-02-11T02:41:10.167Z,101316.88
2023-02-11T02:43:42.102Z,101316.69
2023-02-11T02:46:14.661Z,101304.44
2023-02-11T02:48:41.309Z,101298.59
2023-02-11T02:51:34.131Z,101303.50
2023-02-11T02:54:20.749Z,101295.72
2023-02-11T02:57:00.112Z,101297.88
2023-02-11T02:59:46.500Z,101283.41
2023-02-11T03:02:27.146Z,101282.00
2023-02-11T03:04:56.869Z,101287.22
2023-02-11T03:07:51.037Z,101293.91
2023-02-11T03:10:21.726Z,101293.88
2023-02-11T03:12:48.943Z,101290.66
2023-02-11T03:15:17.239Z,101288.47
2023-02-11T03:17:46.249Z,101288.09
2023-02-11T03:20:14.777Z,101287.19
2023-02-11T03:22:45.599Z,101290.81
2023-02-11T03:25:12.022Z,101298.56
2023-02-11T03:27:47.078Z,101296.38
2023-02-11T03:30:18.003Z,101299.69
2023-02-11T03:32:51.818Z,101294.22
2023-02-11T03:35:23.173Z,101302.91
2023-02-11T03:37:58.129Z,101302.91
2023-02-11T03:40:34.526Z,101316.63
2023-02-11T03:43:10.702Z,101317.72
2023-02-11T03:45:37.766Z,101317.16
2023-02-11T03:48:08.949Z,101315.19
2023-02-11T03:50:36.367Z,101310.28
2023-02-11T03:53:03.621Z,101307.25
2023-02-11T03:55:30.809Z,101295.69
2023-02-11T03:57:57.290Z,101292.06
2023-02-11T04:00:36.450Z,101286.25
2023-02-11T04:03:04.049Z,101288.78
2023-02-11T04:05:30.492Z,101291.34
2023-02-11T04:07:56.946Z,101292.28
2023-02-11T04:10:23.413Z,101294.25
2023-02-11T04:12:49.839Z,101285.75
2023-02-11T04:15:16.403Z,101282.66
2023-02-11T04:17:42.996Z,101283.72
2023-02-11T04:20:09.923Z,101294.03
2023-02-11T04:22:36.753Z,101293.13
2023-02-11T04:25:04.451Z,101279.75
2023-02-11T04:27:30.896Z,101276.47
2023-02-11T04:29:57.277Z,101277.59
2023-02-11T04:32:23.715Z,101283.72
2023-02-11T04:34:50.192Z,101292.75
2023-02-11T04:37:16.634Z,101293.84
2023-02-11T04:39:43.175Z,101290.03
2023-02-11T04:42:09.559Z,101284.81
2023-02-11T04:44:35.949Z,101283.34
2023-02-11T04:47:02.363Z,101273.03
2023-02-11T04:49:31.490Z,101273.56
2023-02-11T04:51:57.892Z,101264.16
2023-02-11T04:54:24.412Z,101262.72
2023-02-11T04:56:51.114Z,101255.69
2023-02-11T04:59:17.605Z,101243.56
2023-02-11T05:01:44.140Z,101241.22
2023-02-11T05:04:10.725Z,101227.88
2023-02-11T05:06:39.418Z,101237.47
2023-02-11T05:09:05.886Z,101232.41
2023-02-11T05:11:32.286Z,101227.34
2023-02-11T05:13:58.681Z,101217.59
2023-02-11T05:16:25.190Z,101228.38
2023-02-11T05:18:52.690Z,101233.09
2023-02-11T05:21:19.669Z,101241.94
2023-02-11T05:23:46.446Z,101248.25
2023-02-11T05:26:13.455Z,101252.59
2023-02-11T05:28:40.242Z,101250.97
2023-02-11T05:31:07.296Z,101253.84
2023-02-11T05:33:33.934Z,101261.59
2023-02-11T05:36:06.357Z,101251.84
2023-02-11T05:38:33.312Z,101250.50
2023-02-11T05:40:59.767Z,101245.09
2023-02-11T05:43:26.260Z,101239.31
2023-02-11T05:45:53.039Z,101249.66
2023-02-11T05:48:19.813Z,101248.16
2023-02-11T05:50:46.446Z,101244.91
2023-02-11T05:53:12.970Z,101240.19
2023-02-11T05:55:39.606Z,101247.59
2023-02-11T05:58:06.725Z,101243.78
2023-02-11T06:00:33.749Z,101257.53
2023-02-11T06:03:00.307Z,101253.25
2023-02-11T06:05:26.756Z,101249.66
2023-02-11T06:07:53.330Z,101239.91
2023-02-11T06:10:19.837Z,101234.44
2023-02-11T06:12:46.338Z,101223.03
2023-02-11T06:15:12.742Z,101238.03
2023-02-11T06:17:39.146Z,101232.75
2023-02-11T06:20:07.384Z,101240.53
2023-02-11T06:22:35.052Z,101241.25
2023-02-11T06:25:02.347Z,101255.16
2023-02-11T06:27:29.665Z,101253.16
2023-02-11T06:29:56.110Z,101264.78
2023-02-11T06:32:42.177Z,101264.69
2023-02-11T06:35:11.642Z,101261.09
2023-02-11T06:37:38.425Z,101256.22
2023-02-11T06:40:05.305Z,101250.59
2023-02-11T06:42:31.790Z,101254.94
2023-02-11T06:44:58.203Z,101261.63
2023-02-11T06:47:24.627Z,101262.53
2023-02-11T06:49:51.095Z,101265.22
2023-02-11T06:52:17.555Z,101267.03
2023-02-11T06:54:43.955Z,101267.03
2023-02-11T06:57:10.367Z,101262.88
2023-02-11T06:59:36.748Z,101262.13
2023-02-11T07:02:03.274Z,101267.94
2023-02-11T07:04:29.775Z,101268.09
2023-02-11T07:06:56.194Z,101265.06
2023-02-11T07:09:22.653Z,101266.13
2023-02-11T07:11:49.126Z,101280.28
2023-02-11T07:14:15.588Z,101280.28
2023-02-11T07:16:41.994Z,101269.19
2023-02-11T07:19:08.475Z,101274.25
2023-02-11T07:21:35.039Z,101275.31
2023-02-11T07:24:02.096Z,101278.94
2023-02-11T07:26:29.212Z,101275.66
2023-02-11T07:28:57.202Z,101271.69
2023-02-11T07:31:25.995Z,101264.22
2023-02-11T07:33:53.925Z,101272.16
2023-02-11T07:36:21.056Z,101279.56
2023-02-11T07:38:47.494Z,101280.47
2023-02-11T07:41:16.540Z,101283.69
2023-02-11T07:43:43.480Z,101282.84
2023-02-11T07:46:21.791Z,101286.28
2023-02-11T07:48:48.341Z,101285.94
2023-02-11T07:51:31.061Z,101287.38
2023-02-11T07:53:58.987Z,101284.84
2023-02-11T07:56:25.997Z,101291.69
2023-02-11T07:58:52.436Z,101285.88
2023-02-11T08:01:25.374Z,101293.97
2023-02-11T08:03:52.877Z,101297.94
2023-02-11T08:06:20.640Z,101307.47
2023-02-11T08:08:47.604Z,101305.06
2023-02-11T08:11:16.963Z,101308.44
2023-02-11T08:13:44.131Z,101306.25
2023-02-11T08:16:19.222Z,101309.13
2023-02-11T08:18:45.723Z,101306.69
2023-02-11T08:21:12.336Z,101305.06
2023-02-11T08:23:40.306Z,101299.03
2023-02-11T08:26:10.452Z,101303.75
2023-02-11T08:28:38.388Z,101308.44
2023-02-11T08:31:15.771Z,101302.41
2023-02-11T08:33:42.324Z,101304.88
2023-02-11T08:36:10.498Z,101306.63
2023-02-11T08:38:37.056Z,101312.03
2023-02-11T08:41:04.986Z,101304.25
2023-02-11T08:43:31.692Z,101316.72
2023-02-11T08:46:00.153Z,101322.13
2023-02-11T08:48:28.632Z,101319.91
2023-02-11T08:50:56.045Z,101312.16
2023-02-11T08:53:22.610Z,101317.16
2023-02-11T08:55:54.046Z,101318.22
2023-02-11T08:58:21.383Z,101323.78
2023-02-11T09:00:49.293Z,101324.69
2023-02-11T09:03:16.389Z,101326.59
2023-02-11T09:05:48.163Z,101329.03
2023-02-11T09:08:14.832Z,101322.66
2023-02-11T09:10:41.471Z,101326.75
2023-02-11T09:13:08.493Z,101328.69
2023-02-11T09:15:35.185Z,101327.72
2023-02-11T09:18:02.045Z,101331.97
2023-02-11T09:20:28.467Z,101319.59
2023-02-11T09:22:57.283Z,101330.00
2023-02-11T09:25:23.949Z,101323.75
2023-02-11T09:27:51.339Z,101317.00
2023-02-11T09:30:17.896Z,101327.41
2023-02-11T09:32:44.292Z,101323.22
2023-02-11T09:35:10.724Z,101319.84
2023-02-11T09:37:37.545Z,101318.53
2023-02-11T09:40:04.678Z,101319.56
2023-02-11T09:42:52.946Z,101324.88
2023-02-11T09:45:24.916Z,101323.09
2023-02-11T09:48:06.359Z,101324.16
2023-02-11T09:50:40.123Z,101333.31
2023-02-11T09:53:32.686Z,101331.88
2023-02-11T09:56:02.246Z,101317.22
2023-02-11T09:58:32.080Z,101313.34
2023-02-11T10:01:27.418Z,101313.03
2023-02-11T10:04:18.373Z,101318.84
2023-02-11T10:06:48.261Z,101316.91
2023-02-11T10:09:33.381Z,101332.56
2023-02-11T10:12:21.778Z,101330.50
2023-02-11T10:15:15.515Z,101342.13
2023-02-11T10:18:14.178Z,101339.75
2023-02-11T10:20:50.273Z,101338.28
2023-02-11T10:23:21.487Z,101330.06
2023-02-11T10:25:54.458Z,101325.13
2023-02-11T10:28:34.793Z,101340.00
2023-02-11T10:31:11.710Z,101350.03
2023-02-11T10:34:11.791Z,101351.00
2023-02-11T10:36:43.248Z,101346.94
2023-02-11T10:39:16.113Z,101352.31
2023-02-11T10:41:54.853Z,101353.84
2023-02-11T10:44:27.542Z,101353.53
2023-02-11T10:46:54.592Z,101367.91
2023-02-11T10:49:41.930Z,101366.16
2023-02-11T10:52:33.987Z,101361.66
2023-02-11T10:55:15.298Z,101357.75
2023-02-11T10:57:58.443Z,101366.75
2023-02-11T11:00:36.333Z,101355.63
2023-02-11T11:03:05.555Z,101357.16
2023-02-11T11:05:36.656Z,101353.09
2023-02-11T11:08:07.494Z,101354.44
2023-02-11T11:10:43.565Z,101350.56
2023-02-11T11:13:25.156Z,101345.00
2023-02-11T11:16:13.108Z,101341.56
2023-02-11T11:18:40.665Z,101329.88
2023-02-11T11:21:12.282Z,101330.47
2023-02-11T11:23:39.446Z,101328.53
2023-02-11T11:26:15.189Z,101319.66
2023-02-11T11:28:55.174Z,101329.28
2023-02-11T11:31:24.784Z,101331.38
2023-02-11T11:33:53.228Z,101335.56
2023-02-11T11:36:31.992Z,101328.66
2023-02-11T11:39:01.274Z,101329.25
2023-02-11T11:41:30.913Z,101323.88
2023-02-11T11:44:24.042Z,101317.84
2023-02-11T11:47:04.787Z,101327.63
2023-02-11T11:49:35.987Z,101319.38
2023-02-11T11:52:19.851Z,101326.31
2023-02-11T11:54:53.220Z,101313.72
2023-02-11T11:57:23.509Z,101315.22
2023-02-11T11:59:49.954Z,101302.63
2023-02-11T12:02:22.686Z,101298.41
2023-02-11T12:05:15.564Z,101294.63
2023-02-11T12:07:54.123Z,101298.97
2023-02-11T12:10:51.265Z,101295.03
2023-02-11T12:13:26.999Z,101296.41
2023-02-11T12:16:22.334Z,101285.44
2023-02-11T12:18:57.955Z,101289.94
2023-02-11T12:21:29.455Z,101298.34
2023-02-11T12:24:41.455Z,101302.88
2023-02-11T12:27:16.728Z,101303.28
2023-02-11T12:29:49.144Z,101313.19
2023-02-11T12:32:15.549Z,101309.28
2023-02-11T12:34:51.053Z,101306.03
2023-02-11T12:37:42.513Z,101314.72
2023-02-11T12:40:20.205Z,101310.09
2023-02-11T12:43:09.860Z,101307.09
2023-02-11T12:46:02.574Z,101310.25
2023-02-11T12:48:28.984Z,101315.22
2023-02-11T12:51:04.480Z,101309.78
2023-02-11T12:54:02.129Z,101318.22
2023-02-11T12:56:38.681Z,101317.59
2023-02-11T12:59:08.518Z,101312.22
2023-02-11T13:01:41.008Z,101304.84
2023-02-11T13:04:27.111Z,101309.63
2023-02-11T13:07:02.186Z,101306.78
2023-02-11T13:09:50.950Z,101300.50
2023-02-11T13:12:36.046Z,101294.97
2023-02-11T13:15:07.465Z,101293.63
2023-02-11T13:17:41.183Z,101287.59
2023-02-11T13:20:21.104Z,101294.50
2023-02-11T13:23:05.820Z,101289.97
2023-02-11T13:25:40.617Z,101283.97
2023-02-11T13:28:28.664Z,101283.34
2023-02-11T13:31:02.597Z,101285.78
2023-02-11T13:33:37.398Z,101272.53
2023-02-11T13:36:04.819Z,101269.13
2023-02-11T13:38:32.402Z,101271.16
2023-02-11T13:41:05.003Z,101263.22
2023-02-11T13:43:33.617Z,101261.47
2023-02-11T13:46:02.437Z,101262.31
2023-02-11T13:48:30.983Z,101265.00
2023-02-11T13:51:11.501Z,101270.09
2023-02-11T13:53:56.846Z,101265.72
2023-02-11T13:56:29.757Z,101258.38
2023-02-11T13:59:00.146Z,101264.97
2023-02-11T14:02:09.345Z,101257.50
2023-02-11T14:04:54.427Z,101260.63
2023-02-11T14:07:42.143Z,101261.97
2023-02-11T14:10:42.431Z,101263.19
2023-02-11T14:13:30.209Z,101256.31
2023-02-11T14:16:20.295Z,101265.34
2023-02-11T14:18:54.869Z,101257.97
2023-02-11T14:21:27.286Z,101257.34
2023-02-11T14:24:14.654Z,101252.81
2023-02-11T14:26:48.104Z,101243.50
2023-02-11T14:29:22.406Z,101249.66
2023-02-11T14:32:08.873Z,101243.94
2023-02-11T14:34:47.471Z,101231.59
2023-02-11T14:37:50.319Z,101235.66
2023-02-11T14:40:53.018Z,101228.63
2023-02-11T14:43:29.708Z,101235.22
2023-02-11T14:45:57.129Z,101233.84
2023-02-11T14:48:30.332Z,101231.28
2023-02-11T14:51:14.959Z,101245.41
2023-02-11T14:53:45.859Z,101245.03
2023-02-11T14:56:26.277Z,101251.50
2023-02-11T14:58:54.266Z,101247.69
2023-02-11T15:01:33.856Z,101246.41
2023-02-11T15:04:02.771Z,101243.72
2023-02-11T15:06:40.110Z,101245.16
2023-02-11T15:09:45.254Z,101247.28
2023-02-11T15:12:18.582Z,101258.97
2023-02-11T15:14:49.803Z,101251.13
2023-02-11T15:17:19.445Z,101247.22
2023-02-11T15:19:48.444Z,101247.97
2023-02-11T15:22:22.011Z,101249.03
2023-02-11T15:25:19.746Z,101246.66
2023-02-11T15:27:52.717Z,101247.97
2023-02-11T15:30:22.065Z,101252.06
2023-02-11T15:33:07.499Z,101254.16
2023-02-11T15:35:37.509Z,101266.16
2023-02-11T15:38:04.770Z,101271.28
2023-02-11T15:40:33.422Z,101265.84
2023-02-11T15:43:04.934Z,101262.56
2023-02-11T15:45:43.864Z,101265.56
2023-02-11T15:48:20.369Z,101272.75
2023-02-11T15:50:55.917Z,101273.66
2023-02-11T15:53:27.726Z,101273.69
2023-02-11T15:56:01.985Z,101274.00
2023-02-11T15:58:28.543Z,101272.47
2023-02-11T16:00:59.576Z,101267.38
2023-02-11T16:03:32.267Z,101271.50
2023-02-11T16:06:21.393Z,101272.81
2023-02-11T16:09:05.102Z,101274.06
2023-02-11T16:11:34.292Z,101268.16
2023-02-11T16:14:04.097Z,101271.31
2023-02-11T16:16:33.775Z,101274.91
2023-02-11T16:19:05.360Z,101281.81
2023-02-11T16:21:42.336Z,101294.59
2023-02-11T16:24:18.481Z,101287.69
2023-02-11T16:26:49.127Z,101283.03
2023-02-11T16:29:17.743Z,101288.13
2023-02-11T16:31:46.167Z,101283.03
2023-02-11T16:34:21.489Z,101285.00
2023-02-11T16:36:49.108Z,101291.50
2023-02-11T16:39:16.834Z,101292.41
2023-02-11T16:41:43.540Z,101288.94
2023-02-11T16:44:09.965Z,101286.09
2023-02-11T16:46:37.053Z,101296.59
2023-02-11T16:49:19.699Z,101290.31
2023-02-11T16:51:48.253Z,101299.00
2023-02-11T16:54:16.318Z,101294.81
2023-02-11T16:56:43.138Z,101296.88
2023-02-11T16:59:09.918Z,101294.19
2023-02-11T17:01:38.225Z,101292.72
2023-02-11T17:04:05.660Z,101296.75
2023-02-11T17:06:33.821Z,101305.03
2023-02-11T17:09:00.403Z,101313.72
2023-02-11T17:11:26.856Z,101318.84
2023-02-11T17:13:53.291Z,101325.28
2023-02-11T17:16:22.536Z,101330.53
2023-02-11T17:18:49.509Z,101333.81
2023-02-11T17:21:16.215Z,101333.66
2023-02-11T17:23:42.798Z,101336.22
2023-02-11T17:26:09.474Z,101339.81
2023-02-11T17:28:35.971Z,101341.31
2023-02-11T17:31:07.112Z,101340.72
2023-02-11T17:33:36.120Z,101351.06
2023-02-11T17:36:07.512Z,101350.78
2023-02-11T17:38:34.782Z,101345.81
2023-02-11T17:41:02.144Z,101346.69
2023-02-11T17:43:28.729Z,101338.91
2023-02-11T17:45:55.268Z,101339.06
2023-02-11T17:48:21.818Z,101328.84
2023-02-11T17:50:48.283Z,101332.44
2023-02-11T17:53:14.796Z,101342.81
2023-02-11T17:55:41.257Z,101332.59
2023-02-11T17:58:07.652Z,101340.09
2023-02-11T18:00:34.165Z,101336.06
2023-02-11T18:03:03.639Z,101340.09
2023-02-11T18:05:36.786Z,101341.28
2023-02-11T18:08:05.260Z,101327.47
2023-02-11T18:10:33.433Z,101324.19
2023-02-11T18:13:00.892Z,101326.59
2023-02-11T18:15:27.331Z,101331.72
2023-02-11T18:17:53.766Z,101333.50
2023-02-11T18:20:20.435Z,101337.09
2023-02-11T18:22:46.826Z,101336.22
2023-02-11T18:25:16.462Z,101332.31
2023-02-11T18:27:43.013Z,101335.59
2023-02-11T18:30:14.824Z,101333.97
2023-02-11T18:32:41.530Z,101331.25
2023-02-11T18:35:14.839Z,101329.31
2023-02-11T18:37:42.466Z,101338.03
2023-02-11T18:40:10.299Z,101334.41
2023-02-11T18:42:36.788Z,101330.03
2023-02-11T18:45:04.654Z,101330.22
2023-02-11T18:47:31.457Z,101334.72
2023-02-11T18:49:57.861Z,101335.63
2023-02-11T18:52:24.276Z,101331.25
2023-02-11T18:54:52.235Z,101333.22
2023-02-11T18:57:18.696Z,101338.59
2023-02-11T18:59:45.111Z,101350.00
2023-02-11T19:02:11.646Z,101346.72
2023-02-11T19:04:38.319Z,101354.81
2023-02-11T19:07:04.815Z,101356.31
2023-02-11T19:09:31.360Z,101356.91
2023-02-11T19:11:59.786Z,101352.72
2023-02-11T19:14:36.999Z,101352.41
2023-02-11T19:17:06.073Z,101359.47
2023-02-11T19:19:34.332Z,101363.66
2023-02-11T19:22:01.583Z,101353.16
2023-02-11T19:24:29.227Z,101362.59
2023-02-11T19:27:01.222Z,101361.13
2023-02-11T19:29:28.704Z,101362.59
2023-02-11T19:31:55.674Z,101364.13
2023-02-11T19:34:22.281Z,101362.00
2023-02-11T19:36:49.625Z,101372.06
2023-02-11T19:39:16.441Z,101365.00
2023-02-11T19:41:43.015Z,101363.19
2023-02-11T19:44:09.895Z,101366.53
2023-02-11T19:46:38.327Z,101363.38
2023-02-11T19:49:05.221Z,101350.63
2023-02-11T19:51:39.024Z,101352.25
2023-02-11T19:54:06.746Z,101351.97
2023-02-11T19:56:33.234Z,101349.72
2023-02-11T19:59:02.004Z,101351.53
2023-02-11T20:01:28.430Z,101351.22
2023-02-11T20:03:57.185Z,101352.69
2023-02-11T20:06:26.301Z,101350.94
2023-02-11T20:08:58.779Z,101342.66
2023-02-11T20:11:26.868Z,101342.53
2023-02-11T20:13:53.694Z,101342.22
2023-02-11T20:16:21.828Z,101347.00
2023-02-11T20:18:49.319Z,101348.81
2023-02-11T20:21:33.809Z,101348.22
2023-02-11T20:24:01.062Z,101353.91
2023-02-11T20:26:32.152Z,101356.00
2023-02-11T20:29:02.175Z,101350.28
2023-02-11T20:31:33.109Z,101352.09
2023-02-11T20:34:01.041Z,101352.09
2023-02-11T20:36:31.851Z,101345.97
2023-02-11T20:38:59.792Z,101347.88
2023-02-11T20:41:29.338Z,101356.00
2023-02-11T20:43:56.040Z,101366.19
2023-02-11T20:46:24.511Z,101358.72
2023-02-11T20:48:52.332Z,101357.34
2023-02-11T20:51:22.927Z,101360.19
2023-02-11T20:53:51.237Z,101367.25
2023-02-11T20:56:20.230Z,101360.97
2023-02-11T20:58:47.062Z,101366.81
2023-02-11T21:01:18.393Z,101363.53
2023-02-11T21:03:49.619Z,101360.19
2023-02-11T21:06:16.338Z,101363.53
2023-02-11T21:08:42.771Z,101356.59
2023-02-11T21:11:09.296Z,101349.69
2023-02-11T21:13:36.989Z,101360.63
2023-02-11T21:16:03.782Z,101351.50
2023-02-11T21:18:30.286Z,101359.91
2023-02-11T21:20:57.392Z,101352.41
2023-02-11T21:23:24.740Z,101355.88
2023-02-11T21:25:53.267Z,101355.09
2023-02-11T21:28:23.912Z,101355.88
2023-02-11T21:30:50.366Z,101357.50
2023-02-11T21:33:16.825Z,101361.97
2023-02-11T21:35:43.334Z,101368.25
2023-02-11T21:38:09.729Z,101375.63
2023-02-11T21:40:36.274Z,101374.16
2023-02-11T21:43:02.677Z,101378.94
2023-02-11T21:45:31.409Z,101378.47
2023-02-11T21:47:58.915Z,101378.47
2023-02-11T21:50:25.316Z,101378.47
2023-02-11T21:52:52.881Z,101378.44
2023-02-11T21:55:19.311Z,101382.38
2023-02-11T21:57:45.706Z,101379.09
2023-02-11T22:00:12.938Z,101373.47
2023-02-11T22:02:39.387Z,101377.09
2023-02-11T22:05:06.093Z,101373.47
2023-02-11T22:07:35.148Z,101369.16
2023-02-11T22:10:01.588Z,101372.28
2023-02-11T22:12:27.996Z,101360.44
2023-02-11T22:14:54.379Z,101357.59
2023-02-11T22:17:20.936Z,101362.38
2023-02-11T22:19:47.339Z,101361.94
2023-02-11T22:22:18.084Z,101360.75
2023-02-11T22:24:47.924Z,101357.75
2023-02-11T22:27:15.284Z,101362.56
2023-02-11T22:29:41.977Z,101370.06
2023-02-11T22:32:08.995Z,101374.56
2023-02-11T22:34:35.788Z,101372.75
2023-02-11T22:37:04.927Z,101369.47
2023-02-11T22:39:31.388Z,101372.00
2023-02-11T22:41:57.838Z,101373.09
2023-02-11T22:44:24.910Z,101376.03
2023-02-11T22:46:51.906Z,101381.50
2023-02-11T22:49:19.962Z,101383.09
2023-02-11T22:51:46.565Z,101386.59
2023-02-11T22:54:16.439Z,101377.84
2023-02-11T22:56:43.363Z,101383.28
2023-02-11T22:59:15.336Z,101384.06
2023-02-11T23:01:42.683Z,101389.16
2023-02-11T23:04:11.902Z,101392.41
2023-02-11T23:06:38.358Z,101394.03
2023-02-11T23:09:08.882Z,101386.22
2023-02-11T23:11:35.641Z,101387.13
2023-02-11T23:14:02.541Z,101391.50
2023-02-11T23:16:33.928Z,101388.03
2023-02-11T23:19:02.192Z,101389.84
2023-02-11T23:21:31.085Z,101396.13
2023-02-11T23:24:04.083Z,101388.47
2023-02-11T23:26:30.533Z,101396.44
2023-02-11T23:28:58.408Z,101398.97
2023-02-11T23:31:26.149Z,101392.09
2023-02-11T23:33:52.738Z,101401.22
2023-02-11T23:36:20.684Z,101398.66
2023-02-11T23:38:47.866Z,101403.78
2023-02-11T23:41:14.770Z,101395.38
2023-02-11T23:43:41.525Z,101399.13
2023-02-11T23:46:08.600Z,101390.41
2023-02-11T23:48:36.542Z,101400.91
2023-02-11T23:51:03.573Z,101389.69
2023-02-11T23:53:30.006Z,101392.22
2023-02-11T23:55:56.738Z,101390.41
2023-02-11T23:58:23.258Z,101386.22
